Time;durP1;ratioP1;P1;durP2;ratioP2;P2;SDS_P1;SDS_P2;PMS_P1;PMS_P2;Temp;Humidity;BMP_temperature;BMP_pressure;BME280_temperature;BME280_humidity;BME280_pressure;Samples;Min_cycle;Max_cycle;Signal;HPM_P1;HPM_P2
2023/12/21 00:00:36;;;;;;;0.80;0.57;;;5.50;99.90;;;;;;7834172;28;20186;-86
2023/12/21 00:04:22;;;;;;;0.60;0.50;;;5.50;99.90;;;;;;7825270;28;20213;-85
2023/12/21 00:08:08;;;;;;;3.13;0.80;;;5.50;99.90;;;;;;7810257;28;20599;-85
2023/12/21 00:11:53;;;;;;;1.50;0.57;;;5.60;99.90;;;;;;7812332;28;20648;-84
2023/12/21 00:15:39;;;;;;;1.40;0.60;;;5.50;99.90;;;;;;7820212;28;20193;-86
2023/12/21 00:19:24;;;;;;;0.83;0.60;;;5.50;99.90;;;;;;7827498;28;20190;-86
2023/12/21 00:23:10;;;;;;;1.33;0.57;;;5.50;99.90;;;;;;7812355;28;20203;-86
2023/12/21 00:26:56;;;;;;;0.47;0.40;;;5.50;99.90;;;;;;7824897;28;20193;-85
2023/12/21 00:30:41;;;;;;;1.20;0.80;;;5.50;99.90;;;;;;7841968;28;20186;-85
2023/12/21 00:34:27;;;;;;;1.10;0.67;;;5.40;99.90;;;;;;7821116;28;20178;-85
2023/12/21 00:38:12;;;;;;;0.70;0.60;;;5.40;99.90;;;;;;7821605;28;20274;-86
2023/12/21 00:41:58;;;;;;;0.50;0.50;;;5.30;99.90;;;;;;7811199;28;20256;-85
2023/12/21 00:45:44;;;;;;;0.80;0.40;;;5.40;99.90;;;;;;7822930;28;20238;-85
2023/12/21 00:49:29;;;;;;;0.40;0.40;;;5.40;99.90;;;;;;7828843;28;20261;-86
2023/12/21 00:53:15;;;;;;;1.07;0.40;;;5.40;99.90;;;;;;7843380;28;20181;-86
2023/12/21 00:57:01;;;;;;;0.60;0.50;;;5.40;99.90;;;;;;7827258;28;20207;-86
2023/12/21 01:00:47;;;;;;;0.40;0.40;;;5.40;99.90;;;;;;7851626;22;20246;-85
2023/12/21 01:04:32;;;;;;;0.20;0.20;;;5.40;99.90;;;;;;7804175;28;20183;-83
2023/12/21 01:08:18;;;;;;;0.90;0.40;;;5.40;99.90;;;;;;7800722;28;20817;-86
2023/12/21 01:12:06;;;;;;;0.30;0.30;;;5.40;99.90;;;;;;7815137;28;20198;-84
2023/12/21 01:15:52;;;;;;;0.40;0.20;;;5.40;99.90;;;;;;7815575;28;20209;-84
2023/12/21 01:19:39;;;;;;;0.20;0.20;;;5.40;99.90;;;;;;7845803;28;20205;-84
2023/12/21 01:23:25;;;;;;;2.20;0.30;;;5.40;99.90;;;;;;7823427;28;20210;-84
2023/12/21 01:27:12;;;;;;;0.30;0.30;;;5.50;99.90;;;;;;7843459;28;20180;-85
2023/12/21 01:30:58;;;;;;;0.70;0.30;;;5.50;99.90;;;;;;7842137;28;20198;-84
2023/12/21 01:34:44;;;;;;;0.20;0.20;;;5.50;99.90;;;;;;7854989;28;20181;-83
2023/12/21 01:38:31;;;;;;;0.20;0.20;;;5.60;99.90;;;;;;7843242;28;20189;-84
2023/12/21 01:42:17;;;;;;;0.20;0.20;;;5.60;99.90;;;;;;7807095;28;20206;-85
2023/12/21 01:46:03;;;;;;;0.20;0.17;;;5.60;99.90;;;;;;7842515;28;20170;-83
2023/12/21 01:49:50;;;;;;;0.20;0.20;;;5.70;99.90;;;;;;7825238;28;20182;-84
2023/12/21 01:53:37;;;;;;;0.23;0.10;;;5.70;99.90;;;;;;7830547;28;20197;-85
2023/12/21 01:57:26;;;;;;;0.10;0.10;;;5.80;99.90;;;;;;7829187;28;20844;-84
2023/12/21 02:01:13;;;;;;;0.20;0.20;;;5.80;99.90;;;;;;7784249;28;20218;-83
2023/12/21 02:05:02;;;;;;;0.27;0.23;;;5.80;99.90;;;;;;7847615;28;20166;-83
2023/12/21 02:08:48;;;;;;;0.20;0.10;;;5.80;99.90;;;;;;7827976;28;20178;-84
2023/12/21 02:12:34;;;;;;;0.60;0.20;;;5.90;99.90;;;;;;7852841;28;20693;-84
2023/12/21 02:16:34;;;;;;;0.10;0.10;;;5.90;99.90;;;;;;7827813;28;20216;-83
2023/12/21 02:20:20;;;;;;;0.20;0.20;;;5.90;99.90;;;;;;7828811;28;20225;-83
2023/12/21 02:24:16;;;;;;;0.10;0.10;;;5.90;99.90;;;;;;7857515;28;20270;-83
2023/12/21 02:28:03;;;;;;;0.10;0.10;;;5.90;99.90;;;;;;7839799;28;20189;-84
2023/12/21 02:31:50;;;;;;;0.13;0.13;;;5.90;99.90;;;;;;7862654;28;20210;-84
2023/12/21 02:35:36;;;;;;;0.17;0.17;;;5.90;99.90;;;;;;7825332;28;20206;-83
2023/12/21 02:39:22;;;;;;;0.10;0.10;;;5.80;99.90;;;;;;7843407;28;20178;-85
2023/12/21 02:43:08;;;;;;;0.83;0.10;;;5.90;99.90;;;;;;7852057;28;20714;-83
2023/12/21 02:46:53;;;;;;;0.10;0.10;;;5.90;99.90;;;;;;7843000;28;20534;-83
2023/12/21 02:50:40;;;;;;;0.17;0.17;;;5.90;99.90;;;;;;7842717;28;20224;-83
2023/12/21 02:54:26;;;;;;;0.10;0.10;;;5.90;99.90;;;;;;7841010;28;20185;-84
2023/12/21 02:58:12;;;;;;;0.20;0.20;;;5.90;99.90;;;;;;7855102;28;20182;-84
2023/12/21 03:01:58;;;;;;;0.27;0.20;;;6.00;99.90;;;;;;7872182;28;20284;-84
2023/12/21 03:05:43;;;;;;;0.10;0.10;;;5.90;99.90;;;;;;7843557;28;20205;-84
2023/12/21 03:09:31;;;;;;;0.20;0.20;;;5.90;99.90;;;;;;7841492;28;20190;-83
2023/12/21 03:13:16;;;;;;;0.30;0.10;;;6.00;99.90;;;;;;7822470;28;20670;-84
2023/12/21 03:17:04;;;;;;;0.20;0.20;;;5.90;99.90;;;;;;7849034;28;20280;-84
2023/12/21 03:20:51;;;;;;;0.20;0.20;;;5.90;99.90;;;;;;7820730;28;20245;-83
2023/12/21 03:24:37;;;;;;;0.20;0.20;;;5.90;99.90;;;;;;7853429;28;20177;-84
2023/12/21 03:28:23;;;;;;;0.20;0.20;;;5.80;99.90;;;;;;7840049;28;20184;-83
2023/12/21 03:32:09;;;;;;;0.20;0.20;;;5.90;99.90;;;;;;7862978;28;20201;-83
2023/12/21 03:35:56;;;;;;;0.40;0.30;;;5.80;99.90;;;;;;7852808;28;20177;-83
2023/12/21 03:39:41;;;;;;;0.20;0.20;;;5.80;99.90;;;;;;7853326;28;20209;-83
2023/12/21 03:43:27;;;;;;;0.10;0.10;;;5.70;99.90;;;;;;7839776;28;20240;-83
2023/12/21 03:47:13;;;;;;;0.50;0.20;;;5.80;99.90;;;;;;7821467;28;20612;-83
2023/12/21 03:51:01;;;;;;;0.13;0.10;;;5.80;99.90;;;;;;7821409;28;20292;-82
2023/12/21 03:54:47;;;;;;;0.20;0.20;;;5.90;99.90;;;;;;7804413;28;20810;-83
2023/12/21 03:58:33;;;;;;;0.00;0.00;;;6.00;99.90;;;;;;7830724;28;20209;-84
2023/12/21 04:02:20;;;;;;;1.93;0.20;;;5.90;99.90;;;;;;7861553;28;20214;-85
2023/12/21 04:06:07;;;;;;;0.50;0.30;;;5.90;99.90;;;;;;7861030;28;20174;-84
2023/12/21 04:09:53;;;;;;;0.20;0.10;;;5.90;99.90;;;;;;7816189;28;20196;-85
2023/12/21 04:13:39;;;;;;;0.53;0.10;;;5.90;99.90;;;;;;7842551;28;20205;-85
2023/12/21 04:17:27;;;;;;;0.10;0.10;;;6.00;99.90;;;;;;7832468;28;20193;-84
2023/12/21 04:21:12;;;;;;;0.20;0.10;;;6.00;99.90;;;;;;7830862;28;20359;-85
2023/12/21 04:25:00;;;;;;;0.00;0.00;;;6.00;99.90;;;;;;7844243;28;20173;-84
2023/12/21 04:28:48;;;;;;;0.03;0.03;;;6.00;99.90;;;;;;7835187;28;20711;-85
2023/12/21 04:32:33;;;;;;;0.20;0.10;;;6.10;99.90;;;;;;7827259;28;20316;-84
2023/12/21 04:36:20;;;;;;;0.00;0.00;;;6.00;99.90;;;;;;7827718;28;20190;-85
2023/12/21 04:40:09;;;;;;;0.13;0.13;;;6.00;99.90;;;;;;7846494;28;20817;-84
2023/12/21 04:43:55;;;;;;;0.30;0.20;;;6.10;99.90;;;;;;7841493;28;20208;-84
2023/12/21 04:47:40;;;;;;;0.10;0.10;;;6.10;99.90;;;;;;7857160;28;20223;-84
2023/12/21 04:51:27;;;;;;;0.00;0.00;;;6.10;99.90;;;;;;7863683;28;20194;-84
2023/12/21 04:55:14;;;;;;;0.80;0.10;;;6.10;99.90;;;;;;7838975;28;20188;-84
2023/12/21 04:59:00;;;;;;;0.13;0.13;;;6.10;99.90;;;;;;7827649;28;20930;-83
2023/12/21 05:02:46;;;;;;;0.10;0.10;;;6.10;99.90;;;;;;7846547;28;20213;-84
2023/12/21 05:06:32;;;;;;;0.10;0.10;;;6.10;99.90;;;;;;7854256;28;20173;-85
2023/12/21 05:10:18;;;;;;;0.03;0.00;;;6.10;99.90;;;;;;7821399;28;20709;-83
2023/12/21 05:14:03;;;;;;;0.13;0.13;;;6.10;99.90;;;;;;7823192;28;20196;-84
2023/12/21 05:17:49;;;;;;;0.00;0.00;;;6.10;99.90;;;;;;7821400;28;20182;-84
2023/12/21 05:21:34;;;;;;;0.10;0.10;;;6.10;99.90;;;;;;7822361;28;20292;-84
2023/12/21 05:25:20;;;;;;;0.20;0.10;;;6.10;99.90;;;;;;7821569;28;20251;-84
2023/12/21 05:29:06;;;;;;;0.00;0.00;;;6.20;99.90;;;;;;7821339;28;20631;-83
2023/12/21 05:32:51;;;;;;;0.10;0.10;;;6.20;99.90;;;;;;7831888;28;20669;-83
2023/12/21 05:36:37;;;;;;;0.03;0.03;;;6.20;99.90;;;;;;7822258;28;20182;-85
2023/12/21 05:40:23;;;;;;;0.13;0.10;;;6.20;99.90;;;;;;7832713;28;20202;-84
2023/12/21 05:44:09;;;;;;;0.10;0.10;;;6.20;99.90;;;;;;7829205;28;20592;-84
2023/12/21 05:47:58;;;;;;;0.20;0.10;;;6.20;99.90;;;;;;7846721;28;20268;-84
2023/12/21 05:51:44;;;;;;;0.20;0.10;;;6.10;99.90;;;;;;7819107;28;20212;-83
2023/12/21 05:55:31;;;;;;;0.00;0.00;;;6.20;99.90;;;;;;7817790;28;20182;-84
2023/12/21 05:59:16;;;;;;;0.10;0.00;;;6.20;99.90;;;;;;7835008;28;20558;-84
2023/12/21 06:03:02;;;;;;;0.20;0.10;;;6.20;99.90;;;;;;7827983;28;20581;-84
2023/12/21 06:06:48;;;;;;;0.10;0.10;;;6.10;99.90;;;;;;7843230;28;20174;-85
2023/12/21 06:10:34;;;;;;;0.10;0.10;;;6.10;99.90;;;;;;7832064;28;20206;-83
2023/12/21 06:14:19;;;;;;;0.30;0.20;;;6.10;99.90;;;;;;7818380;28;20224;-84
2023/12/21 06:18:05;;;;;;;0.20;0.20;;;6.10;99.90;;;;;;7836726;28;20190;-83
2023/12/21 06:21:51;;;;;;;0.40;0.30;;;6.10;99.90;;;;;;7817768;28;20216;-83
2023/12/21 06:25:37;;;;;;;0.50;0.30;;;6.10;99.90;;;;;;7818737;28;20243;-83
2023/12/21 06:29:22;;;;;;;0.47;0.20;;;6.10;99.90;;;;;;7818649;28;20178;-84
2023/12/21 06:33:08;;;;;;;0.10;0.10;;;6.10;99.90;;;;;;7817590;28;20214;-83
2023/12/21 06:36:54;;;;;;;0.10;0.10;;;6.10;99.90;;;;;;7829749;28;20190;-84
2023/12/21 06:40:39;;;;;;;0.60;0.10;;;6.10;99.90;;;;;;7831648;28;20288;-84
2023/12/21 06:44:26;;;;;;;1.43;0.20;;;6.10;99.90;;;;;;7834894;28;20195;-83
2023/12/21 06:48:11;;;;;;;0.17;0.10;;;6.10;99.90;;;;;;7824686;28;20815;-83
2023/12/21 06:51:57;;;;;;;0.10;0.10;;;6.10;99.90;;;;;;7805003;28;20291;-83
2023/12/21 06:55:43;;;;;;;0.10;0.10;;;6.10;99.90;;;;;;7865755;28;20177;-84
2023/12/21 06:59:29;;;;;;;1.50;0.00;;;6.00;99.90;;;;;;7854950;28;20209;-84
2023/12/21 07:03:15;;;;;;;1.70;0.30;;;6.10;99.90;;;;;;7843478;22;20229;-88
2023/12/21 07:07:01;;;;;;;0.60;0.20;;;6.10;99.90;;;;;;7857833;28;20185;-88
2023/12/21 07:10:46;;;;;;;0.60;0.50;;;6.10;99.90;;;;;;7844955;28;20238;-87
2023/12/21 07:14:32;;;;;;;1.67;0.50;;;6.10;99.90;;;;;;7842560;28;20202;-87
2023/12/21 07:18:18;;;;;;;0.10;0.10;;;6.10;99.90;;;;;;7843055;28;20178;-87
2023/12/21 07:22:07;;;;;;;0.33;0.33;;;6.10;99.90;;;;;;7842516;28;20701;-87
2023/12/21 07:25:52;;;;;;;1.10;0.30;;;6.10;99.90;;;;;;7817019;28;20179;-87
2023/12/21 07:29:38;;;;;;;1.23;0.30;;;6.10;99.90;;;;;;7833633;28;20859;-87
2023/12/21 07:33:24;;;;;;;0.20;0.20;;;6.10;99.90;;;;;;7835771;28;20371;-87
2023/12/21 07:37:12;;;;;;;0.40;0.40;;;6.10;99.90;;;;;;7841841;28;20178;-87
2023/12/21 07:40:57;;;;;;;0.40;0.40;;;6.10;99.90;;;;;;7843432;28;20178;-88
2023/12/21 07:44:44;;;;;;;0.50;0.40;;;6.20;99.90;;;;;;7843046;28;20217;-88
2023/12/21 07:48:29;;;;;;;0.20;0.20;;;6.20;99.90;;;;;;7831802;28;20269;-88
2023/12/21 07:52:15;;;;;;;0.30;0.30;;;6.20;99.90;;;;;;7843123;28;20198;-86
2023/12/21 07:56:02;;;;;;;0.20;0.20;;;6.30;99.90;;;;;;7842069;28;20243;-88
2023/12/21 07:59:48;;;;;;;0.13;0.13;;;6.30;99.90;;;;;;7824788;28;20183;-88
2023/12/21 08:03:33;;;;;;;0.20;0.20;;;6.40;99.90;;;;;;7841797;28;20216;-88
2023/12/21 08:07:19;;;;;;;0.53;0.30;;;6.40;99.90;;;;;;7829236;28;20189;-87
2023/12/21 08:11:05;;;;;;;0.47;0.10;;;6.40;99.90;;;;;;7844152;28;20174;-88
2023/12/21 08:14:50;;;;;;;0.67;0.20;;;6.50;99.90;;;;;;7841876;28;20461;-88
2023/12/21 08:18:36;;;;;;;0.20;0.20;;;6.50;99.90;;;;;;7837073;28;20197;-87
2023/12/21 08:22:22;;;;;;;0.20;0.20;;;6.60;99.90;;;;;;7833462;28;20872;-87
2023/12/21 08:26:08;;;;;;;0.27;0.20;;;6.60;99.90;;;;;;7832841;28;20185;-87
2023/12/21 08:29:54;;;;;;;0.37;0.20;;;6.70;99.90;;;;;;7841560;28;20187;-88
2023/12/21 08:33:39;;;;;;;0.10;0.10;;;6.70;99.90;;;;;;7849807;28;20193;-89
2023/12/21 08:37:25;;;;;;;0.23;0.20;;;6.70;99.90;;;;;;7856699;28;20174;-89
2023/12/21 08:41:11;;;;;;;0.13;0.13;;;6.70;99.90;;;;;;7824401;28;20171;-87
2023/12/21 08:44:59;;;;;;;0.20;0.20;;;6.70;99.90;;;;;;7806330;28;20182;-86
2023/12/21 08:48:45;;;;;;;0.20;0.20;;;6.80;99.90;;;;;;7812603;28;20182;-87
2023/12/21 08:52:30;;;;;;;3.30;1.67;;;6.80;99.90;;;;;;7830845;28;20271;-87
2023/12/21 08:56:16;;;;;;;0.47;0.40;;;6.80;99.90;;;;;;7836493;28;20174;-87
2023/12/21 09:00:06;;;;;;;2.23;0.30;;;6.90;99.90;;;;;;7836257;28;20610;-87
2023/12/21 09:03:52;;;;;;;0.30;0.30;;;6.90;99.90;;;;;;7835120;28;20296;-86
2023/12/21 09:07:38;;;;;;;0.10;0.10;;;6.90;99.90;;;;;;7835958;28;20208;-86
2023/12/21 09:11:24;;;;;;;0.20;0.20;;;7.00;99.90;;;;;;7835884;28;20205;-87
2023/12/21 09:15:09;;;;;;;0.67;0.20;;;7.00;99.90;;;;;;7834267;28;20178;-87
2023/12/21 09:18:55;;;;;;;0.10;0.10;;;7.10;99.90;;;;;;7834755;28;20690;-87
2023/12/21 09:22:41;;;;;;;2.00;0.23;;;7.00;99.90;;;;;;7823950;28;20860;-87
2023/12/21 09:26:27;;;;;;;0.30;0.30;;;7.10;99.90;;;;;;7815254;28;20186;-86
2023/12/21 09:30:13;;;;;;;1.90;0.17;;;7.10;99.90;;;;;;7837348;28;20174;-87
2023/12/21 09:33:59;;;;;;;1.03;0.30;;;7.20;99.90;;;;;;7826842;28;20210;-87
2023/12/21 09:37:45;;;;;;;0.20;0.20;;;7.20;99.90;;;;;;7830726;28;20196;-87
2023/12/21 09:41:31;;;;;;;0.10;0.10;;;7.20;99.90;;;;;;7835569;28;20260;-87
2023/12/21 09:45:19;;;;;;;0.43;0.43;;;7.20;99.90;;;;;;7831467;28;20177;-87
2023/12/21 09:49:06;;;;;;;0.27;0.17;;;7.20;99.90;;;;;;7833545;28;20643;-87
2023/12/21 09:52:53;;;;;;;5.77;3.37;;;7.30;99.90;;;;;;7804557;28;20209;-86
2023/12/21 09:56:40;;;;;;;25.90;8.93;;;7.40;99.90;;;;;;7830146;28;20178;-86
2023/12/21 10:00:26;;;;;;;33.53;16.10;;;7.40;99.90;;;;;;7813272;28;20213;-87
2023/12/21 10:04:11;;;;;;;7.40;3.63;;;7.40;99.90;;;;;;7809768;28;20784;-86
2023/12/21 10:07:58;;;;;;;7.20;4.10;;;7.50;99.90;;;;;;7823517;28;20179;-87
2023/12/21 10:11:44;;;;;;;0.80;0.60;;;7.50;99.90;;;;;;7826000;28;20206;-87
2023/12/21 10:15:32;;;;;;;0.63;0.63;;;7.60;99.90;;;;;;7842398;28;20262;-87
2023/12/21 10:19:18;;;;;;;0.30;0.30;;;7.70;99.90;;;;;;7819686;28;20186;-88
2023/12/21 10:23:04;;;;;;;0.87;0.60;;;7.70;99.90;;;;;;7811384;28;20214;-87
2023/12/21 10:26:52;;;;;;;0.30;0.30;;;7.70;99.90;;;;;;7809634;28;20196;-87
2023/12/21 10:30:38;;;;;;;0.20;0.20;;;7.80;99.90;;;;;;7840945;28;20186;-88
2023/12/21 10:34:23;;;;;;;1.40;0.20;;;7.70;99.90;;;;;;7840834;28;20260;-87
2023/12/21 10:38:09;;;;;;;2.90;2.37;;;7.70;99.90;;;;;;7843535;28;20639;-88
2023/12/21 10:41:56;;;;;;;0.77;0.77;;;7.80;99.90;;;;;;7820051;28;20574;-87
2023/12/21 10:45:48;;;;;;;0.10;0.10;;;7.70;99.90;;;;;;7809431;28;20186;-88
2023/12/21 10:49:33;;;;;;;0.27;0.27;;;7.70;99.90;;;;;;7819244;28;20177;-88
2023/12/21 10:53:22;;;;;;;0.73;0.30;;;7.80;99.90;;;;;;7841768;28;20219;-88
2023/12/21 10:57:12;;;;;;;0.20;0.10;;;7.80;99.90;;;;;;7842274;28;20178;-87
2023/12/21 11:01:00;;;;;;;0.10;0.10;;;7.80;99.90;;;;;;7839683;28;20190;-87
2023/12/21 11:04:48;;;;;;;0.10;0.10;;;7.90;99.90;;;;;;7824300;28;20587;-88
2023/12/21 11:08:36;;;;;;;0.20;0.20;;;7.80;99.90;;;;;;7843127;28;20201;-88
2023/12/21 11:12:22;;;;;;;0.10;0.10;;;7.80;99.90;;;;;;7841398;28;20216;-88
2023/12/21 11:16:13;;;;;;;0.30;0.20;;;7.80;99.90;;;;;;7840489;28;20195;-88
2023/12/21 11:20:02;;;;;;;0.27;0.10;;;7.70;99.90;;;;;;7841083;28;20185;-88
2023/12/21 11:23:47;;;;;;;0.83;0.20;;;7.70;99.90;;;;;;7840977;28;20205;-87
2023/12/21 11:27:36;;;;;;;0.30;0.20;;;7.70;99.90;;;;;;7838125;28;20182;-87
2023/12/21 11:31:21;;;;;;;1.80;0.30;;;7.60;99.90;;;;;;7840824;28;20820;-86
2023/12/21 11:35:23;;;;;;;0.20;0.10;;;7.70;99.90;;;;;;7819257;28;20747;-87
2023/12/21 11:39:18;;;;;;;0.57;0.40;;;7.60;99.90;;;;;;7832770;28;20255;-86
2023/12/21 11:43:06;;;;;;;0.17;0.17;;;7.60;99.90;;;;;;7818767;28;20221;-87
2023/12/21 11:46:59;;;;;;;0.20;0.20;;;7.60;99.90;;;;;;7826117;28;20198;-87
2023/12/21 11:50:46;;;;;;;0.33;0.23;;;7.60;99.90;;;;;;7841349;28;20839;-87
2023/12/21 11:54:33;;;;;;;0.87;0.10;;;7.60;99.90;;;;;;7839243;28;20209;-86
2023/12/21 11:58:21;;;;;;;0.43;0.30;;;7.50;99.90;;;;;;7829447;28;20182;-88
2023/12/21 12:02:07;;;;;;;0.10;0.10;;;7.50;99.90;;;;;;7840210;28;20213;-87
2023/12/21 12:06:03;;;;;;;1.80;0.33;;;7.50;99.90;;;;;;7840577;28;20305;-88
2023/12/21 12:09:49;;;;;;;0.63;0.20;;;7.50;99.90;;;;;;7841193;28;20235;-87
2023/12/21 12:13:34;;;;;;;1.60;0.23;;;7.50;99.90;;;;;;7834042;28;20210;-88
2023/12/21 12:17:20;;;;;;;0.13;0.13;;;7.50;99.90;;;;;;7830607;28;20266;-87
2023/12/21 12:21:06;;;;;;;0.50;0.30;;;7.60;99.90;;;;;;7833670;28;20183;-88
2023/12/21 12:24:51;;;;;;;0.70;0.20;;;7.60;99.90;;;;;;7828890;28;20248;-87
2023/12/21 12:28:38;;;;;;;0.20;0.20;;;7.60;99.90;;;;;;7842017;28;20262;-87
2023/12/21 12:32:24;;;;;;;0.30;0.17;;;7.70;99.90;;;;;;7817815;28;20740;-87
2023/12/21 12:36:10;;;;;;;0.10;0.10;;;7.70;99.90;;;;;;7822850;28;20196;-88
2023/12/21 12:39:56;;;;;;;0.33;0.20;;;7.70;99.90;;;;;;7824350;28;20651;-87
2023/12/21 12:43:41;;;;;;;0.50;0.30;;;7.70;99.90;;;;;;7811721;28;20210;-88
2023/12/21 12:47:27;;;;;;;0.10;0.10;;;7.70;99.90;;;;;;7841501;28;20182;-87
2023/12/21 12:51:13;;;;;;;0.27;0.17;;;7.80;99.90;;;;;;7840686;28;20185;-86
2023/12/21 12:55:01;;;;;;;0.10;0.10;;;7.70;99.90;;;;;;7827666;28;20175;-88
2023/12/21 12:58:47;;;;;;;0.10;0.10;;;7.80;99.90;;;;;;7833056;28;20175;-87
2023/12/21 13:02:33;;;;;;;0.10;0.10;;;7.80;99.90;;;;;;7858514;28;20213;-87
2023/12/21 13:06:19;;;;;;;0.30;0.20;;;7.80;99.90;;;;;;7873245;28;20187;-84
2023/12/21 13:10:06;;;;;;;0.70;0.57;;;7.80;99.90;;;;;;7845021;28;20193;-86
2023/12/21 13:13:53;;;;;;;0.10;0.10;;;7.90;99.90;;;;;;7815726;28;20580;-87
2023/12/21 13:17:39;;;;;;;0.37;0.20;;;7.90;99.90;;;;;;7815087;28;20205;-86
2023/12/21 13:21:25;;;;;;;0.30;0.30;;;7.90;99.90;;;;;;7825365;28;20206;-87
2023/12/21 13:25:12;;;;;;;0.63;0.10;;;8.00;99.90;;;;;;7837049;28;20666;-86
2023/12/21 13:28:58;;;;;;;0.47;0.47;;;8.00;99.90;;;;;;7828075;28;20188;-88
2023/12/21 13:32:43;;;;;;;0.30;0.20;;;7.90;99.90;;;;;;7832471;28;20197;-86
2023/12/21 13:36:30;;;;;;;0.20;0.20;;;7.90;99.90;;;;;;7820048;28;20186;-87
2023/12/21 13:40:15;;;;;;;5.23;4.80;;;7.90;99.90;;;;;;7818763;28;20178;-87
2023/12/21 13:44:01;;;;;;;0.93;0.93;;;7.80;99.90;;;;;;7822884;28;20214;-87
2023/12/21 13:47:47;;;;;;;0.30;0.30;;;7.80;99.90;;;;;;7830628;28;20181;-87
2023/12/21 13:51:33;;;;;;;0.60;0.60;;;7.70;99.90;;;;;;7832087;28;20226;-85
2023/12/21 13:55:19;;;;;;;6.07;5.17;;;7.70;99.90;;;;;;7831937;28;20600;-87
2023/12/21 13:59:04;;;;;;;4.67;4.30;;;7.70;99.90;;;;;;7840229;28;20186;-87
2023/12/21 14:02:50;;;;;;;0.40;0.40;;;7.70;99.90;;;;;;7836121;28;20210;-87
2023/12/21 14:06:36;;;;;;;0.30;0.23;;;7.70;99.90;;;;;;7841896;28;20247;-87
2023/12/21 14:10:21;;;;;;;1.20;0.60;;;7.70;99.90;;;;;;7835665;28;20185;-88
2023/12/21 14:14:07;;;;;;;3.60;3.30;;;7.70;99.90;;;;;;7834054;28;20277;-87
2023/12/21 14:17:53;;;;;;;2.57;0.80;;;7.70;99.90;;;;;;7841105;28;20182;-87
2023/12/21 14:21:38;;;;;;;0.30;0.30;;;7.80;99.90;;;;;;7825617;28;20209;-86
2023/12/21 14:25:24;;;;;;;0.40;0.30;;;7.80;99.90;;;;;;7841178;28;20178;-87
2023/12/21 14:29:10;;;;;;;1.90;0.40;;;7.90;99.90;;;;;;7840715;28;20231;-86
2023/12/21 14:32:55;;;;;;;2.17;0.23;;;7.90;99.90;;;;;;7829421;28;20256;-86
2023/12/21 14:36:41;;;;;;;0.63;0.23;;;7.90;99.90;;;;;;7809702;28;20558;-87
2023/12/21 14:40:27;;;;;;;0.20;0.20;;;7.90;99.90;;;;;;7824092;28;20936;-87
2023/12/21 14:44:12;;;;;;;1.30;0.30;;;7.90;99.90;;;;;;7841835;28;20579;-86
2023/12/21 14:47:58;;;;;;;20.13;17.97;;;8.00;99.90;;;;;;7822897;28;20274;-86
2023/12/21 14:51:44;;;;;;;1.30;1.20;;;7.90;99.90;;;;;;7823521;28;20729;-86
2023/12/21 14:55:29;;;;;;;0.63;0.33;;;8.00;99.90;;;;;;7820008;28;20186;-86
2023/12/21 14:59:15;;;;;;;0.20;0.20;;;8.00;99.90;;;;;;7835041;28;20197;-86
2023/12/21 15:03:00;;;;;;;0.10;0.10;;;8.10;99.90;;;;;;7840479;28;20678;-86
2023/12/21 15:06:46;;;;;;;0.20;0.20;;;8.10;99.90;;;;;;7829177;28;20239;-86
2023/12/21 15:10:32;;;;;;;0.50;0.50;;;8.20;99.90;;;;;;7840981;28;20182;-87
2023/12/21 15:14:17;;;;;;;0.20;0.20;;;8.20;99.90;;;;;;7818845;28;20207;-86
2023/12/21 15:18:04;;;;;;;0.27;0.27;;;8.20;99.90;;;;;;7838454;28;20189;-86
2023/12/21 15:21:50;;;;;;;0.20;0.20;;;8.20;99.90;;;;;;7838809;28;20238;-86
2023/12/21 15:25:35;;;;;;;2.27;1.10;;;8.20;99.90;;;;;;7819928;28;20174;-87
2023/12/21 15:29:21;;;;;;;1.27;0.70;;;8.20;99.90;;;;;;7840705;28;20253;-86
2023/12/21 15:33:07;;;;;;;0.73;0.30;;;8.10;99.90;;;;;;7836993;28;20667;-86
2023/12/21 15:36:52;;;;;;;3.50;0.93;;;8.10;99.90;;;;;;7838298;28;20228;-87
2023/12/21 15:40:38;;;;;;;0.30;0.30;;;8.10;99.90;;;;;;7834739;28;20297;-86
2023/12/21 15:44:24;;;;;;;0.40;0.40;;;8.10;99.90;;;;;;7837912;28;20213;-85
2023/12/21 15:48:11;;;;;;;0.73;0.60;;;8.10;99.90;;;;;;7832586;28;20174;-87
2023/12/21 15:51:56;;;;;;;0.70;0.60;;;8.20;99.90;;;;;;7833532;28;20210;-86
2023/12/21 15:55:43;;;;;;;1.70;0.47;;;8.20;99.90;;;;;;7836639;28;20209;-87
2023/12/21 15:59:34;;;;;;;1.20;0.60;;;8.30;99.90;;;;;;7832045;28;20265;-87
2023/12/21 16:03:20;;;;;;;0.30;0.30;;;8.30;99.90;;;;;;7827604;28;20300;-87
2023/12/21 16:07:05;;;;;;;0.30;0.27;;;8.40;99.90;;;;;;7839221;28;20181;-85
2023/12/21 16:10:51;;;;;;;2.87;0.30;;;8.40;99.90;;;;;;7839760;28;20181;-85
2023/12/21 16:14:36;;;;;;;0.40;0.40;;;8.30;99.90;;;;;;7833574;28;20255;-85
2023/12/21 16:18:23;;;;;;;1.43;0.57;;;8.20;99.90;;;;;;7829785;28;20217;-85
2023/12/21 16:22:09;;;;;;;1.03;0.40;;;8.10;99.90;;;;;;7832163;28;20666;-85
2023/12/21 16:25:58;;;;;;;0.83;0.40;;;8.10;99.90;;;;;;7824700;28;20682;-85
2023/12/21 16:29:44;;;;;;;1.87;0.40;;;8.00;99.90;;;;;;7821005;28;20307;-85
2023/12/21 16:33:30;;;;;;;0.50;0.40;;;7.90;99.90;;;;;;7830013;28;20695;-85
2023/12/21 16:37:15;;;;;;;1.30;0.40;;;7.90;99.90;;;;;;7813107;28;20743;-84
2023/12/21 16:41:06;;;;;;;2.17;0.90;;;7.90;99.90;;;;;;7822865;28;21519;-85
2023/12/21 16:44:54;;;;;;;1.77;0.20;;;7.80;99.90;;;;;;7832234;28;20205;-85
2023/12/21 16:48:40;;;;;;;0.87;0.37;;;7.80;99.90;;;;;;7827784;28;20170;-85
2023/12/21 16:52:26;;;;;;;2.60;0.93;;;7.70;99.90;;;;;;7835534;28;20236;-85
2023/12/21 16:56:12;;;;;;;1.93;1.77;;;7.50;99.90;;;;;;7817275;28;20252;-85
2023/12/21 16:59:58;;;;;;;3.63;1.10;;;7.40;99.90;;;;;;7827424;28;20877;-85
2023/12/21 17:03:44;;;;;;;1.93;1.30;;;7.30;99.90;;;;;;7827509;28;20693;-85
2023/12/21 17:07:30;;;;;;;0.93;0.60;;;7.20;99.90;;;;;;7820682;28;20174;-85
2023/12/21 17:11:15;;;;;;;2.47;0.60;;;7.10;99.90;;;;;;7824782;28;20171;-86
2023/12/21 17:15:01;;;;;;;1.93;1.23;;;7.00;99.90;;;;;;7825363;28;20186;-84
2023/12/21 17:18:46;;;;;;;5.50;3.13;;;7.00;99.90;;;;;;7851025;28;20208;-86
2023/12/21 17:22:32;;;;;;;4.33;3.53;;;6.90;99.90;;;;;;7871286;28;20237;-86
2023/12/21 17:26:18;;;;;;;4.57;3.10;;;6.90;99.90;;;;;;7856762;28;20189;-86
2023/12/21 17:30:04;;;;;;;7.17;4.97;;;6.80;99.90;;;;;;7835440;28;20190;-86
2023/12/21 17:33:53;;;;;;;4.10;2.00;;;6.80;99.90;;;;;;7819274;28;20205;-85
2023/12/21 17:37:38;;;;;;;2.73;1.40;;;6.60;99.90;;;;;;7819084;28;20235;-85
2023/12/21 17:41:24;;;;;;;2.57;1.10;;;6.40;99.90;;;;;;7816417;28;20182;-85
2023/12/21 17:45:10;;;;;;;3.57;1.33;;;6.20;99.90;;;;;;7832581;28;20195;-85
2023/12/21 17:48:59;;;;;;;3.50;1.43;;;6.20;99.90;;;;;;7812713;28;20212;-86
2023/12/21 17:52:45;;;;;;;4.57;2.00;;;6.10;99.90;;;;;;7825385;28;20209;-86
2023/12/21 17:56:31;;;;;;;2.40;1.47;;;6.00;99.90;;;;;;7832986;28;20185;-86
2023/12/21 18:00:17;;;;;;;1.00;0.70;;;6.10;99.90;;;;;;7833704;28;20189;-85
2023/12/21 18:04:03;;;;;;;2.30;0.60;;;6.20;99.90;;;;;;7834549;28;20609;-86
2023/12/21 18:07:48;;;;;;;1.03;0.53;;;6.20;99.90;;;;;;7834761;28;20193;-86
2023/12/21 18:11:34;;;;;;;0.70;0.40;;;6.20;99.90;;;;;;7822623;28;20207;-86
2023/12/21 18:15:20;;;;;;;1.50;0.77;;;6.10;99.90;;;;;;7826566;28;20205;-86
2023/12/21 18:19:05;;;;;;;1.17;0.60;;;5.90;99.90;;;;;;7833641;28;20599;-86
2023/12/21 18:22:51;;;;;;;2.23;0.50;;;5.90;99.90;;;;;;7820306;28;20210;-85
2023/12/21 18:26:37;;;;;;;0.77;0.47;;;5.90;99.90;;;;;;7825226;28;20218;-86
2023/12/21 18:30:22;;;;;;;2.40;0.40;;;5.80;99.90;;;;;;7828320;28;20182;-85
2023/12/21 18:34:08;;;;;;;0.63;0.53;;;5.70;99.90;;;;;;7823083;28;20206;-85
2023/12/21 18:37:54;;;;;;;0.70;0.40;;;5.80;99.90;;;;;;7831419;28;20197;-85
2023/12/21 18:41:39;;;;;;;2.47;1.33;;;5.70;99.90;;;;;;7836599;28;20202;-86
2023/12/21 18:45:25;;;;;;;1.20;0.60;;;5.80;99.90;;;;;;7828743;28;20189;-85
2023/12/21 18:49:11;;;;;;;2.33;1.00;;;5.70;99.90;;;;;;7833697;28;20186;-84
2023/12/21 18:52:58;;;;;;;2.50;0.70;;;5.60;99.90;;;;;;7823900;28;20685;-85
2023/12/21 18:56:44;;;;;;;1.60;0.60;;;5.60;99.90;;;;;;7829792;28;20182;-86
2023/12/21 19:00:29;;;;;;;2.13;0.87;;;5.80;99.90;;;;;;7811824;28;20185;-85
2023/12/21 19:04:15;;;;;;;2.87;0.97;;;5.60;99.90;;;;;;7826246;28;20309;-86
2023/12/21 19:08:01;;;;;;;4.83;1.93;;;5.60;99.90;;;;;;7823191;28;20321;-85
2023/12/21 19:11:47;;;;;;;2.20;1.10;;;5.70;99.90;;;;;;7837569;28;20205;-85
2023/12/21 19:15:33;;;;;;;5.17;2.10;;;5.70;99.90;;;;;;7834694;28;20192;-85
2023/12/21 19:19:19;;;;;;;4.43;1.60;;;5.70;99.90;;;;;;7827621;28;20713;-85
2023/12/21 19:23:04;;;;;;;4.90;2.33;;;5.60;99.90;;;;;;7823204;28;20272;-85
2023/12/21 19:26:54;;;;;;;6.27;2.20;;;5.70;99.90;;;;;;7818091;28;20186;-86
2023/12/21 19:30:40;;;;;;;3.67;1.10;;;5.80;99.90;;;;;;7822363;22;20691;-87
2023/12/21 19:34:26;;;;;;;3.83;0.67;;;5.70;99.90;;;;;;7778609;28;20598;-87
2023/12/21 19:38:12;;;;;;;6.23;1.07;;;5.80;99.90;;;;;;7798296;28;20189;-86
2023/12/21 19:41:58;;;;;;;2.30;0.93;;;5.70;99.90;;;;;;7808805;28;20198;-86
2023/12/21 19:45:45;;;;;;;4.53;1.00;;;5.80;99.90;;;;;;7781647;28;20245;-85
2023/12/21 19:49:30;;;;;;;4.37;0.80;;;5.60;99.90;;;;;;7778146;28;20322;-85
2023/12/21 19:53:16;;;;;;;3.63;0.73;;;5.80;99.90;;;;;;7778004;28;20207;-86